sensor_id;sensor_type;location;lat;lon;timestamp;P1;durP1;ratioP1;P2;durP2;ratioP2
76550;SDS011;68768;53.156;18.164;2023-11-22T00:00:59;12.10;;;5.30;;
76550;SDS011;68768;53.156;18.164;2023-11-22T00:03:33;14.20;;;4.90;;
76550;SDS011;68768;53.156;18.164;2023-11-22T00:06:00;10.10;;;4.00;;
76550;SDS011;68768;53.156;18.164;2023-11-22T00:08:28;11.90;;;5.10;;
76550;SDS011;68768;53.156;18.164;2023-11-22T00:10:55;15.50;;;5.40;;
76550;SDS011;68768;53.156;18.164;2023-11-22T00:13:22;14.10;;;6.80;;
76550;SDS011;68768;53.156;18.164;2023-11-22T00:15:50;15.10;;;6.70;;
76550;SDS011;68768;53.156;18.164;2023-11-22T00:18:19;11.80;;;4.80;;
76550;SDS011;68768;53.156;18.164;2023-11-22T00:20:46;12.30;;;5.10;;
76550;SDS011;68768;53.156;18.164;2023-11-22T00:23:14;15.10;;;5.80;;
76550;SDS011;68768;53.156;18.164;2023-11-22T00:25:41;15.20;;;6.40;;
76550;SDS011;68768;53.156;18.164;2023-11-22T00:28:08;13.60;;;5.60;;
76550;SDS011;68768;53.156;18.164;2023-11-22T00:30:35;15.30;;;5.30;;
76550;SDS011;68768;53.156;18.164;2023-11-22T00:33:02;13.80;;;6.50;;
76550;SDS011;68768;53.156;18.164;2023-11-22T00:35:29;14.20;;;6.40;;
76550;SDS011;68768;53.156;18.164;2023-11-22T00:37:56;14.20;;;6.10;;
76550;SDS011;68768;53.156;18.164;2023-11-22T00:40:24;14.30;;;5.10;;
76550;SDS011;68768;53.156;18.164;2023-11-22T00:42:52;13.30;;;5.70;;
76550;SDS011;68768;53.156;18.164;2023-11-22T00:45:19;12.00;;;5.00;;
76550;SDS011;68768;53.156;18.164;2023-11-22T00:47:46;14.80;;;5.80;;
76550;SDS011;68768;53.156;18.164;2023-11-22T00:50:13;10.90;;;4.80;;
76550;SDS011;68768;53.156;18.164;2023-11-22T00:52:40;12.20;;;5.60;;
76550;SDS011;68768;53.156;18.164;2023-11-22T00:55:11;9.10;;;4.40;;
76550;SDS011;68768;53.156;18.164;2023-11-22T00:57:38;14.70;;;6.10;;
76550;SDS011;68768;53.156;18.164;2023-11-22T01:00:06;14.40;;;5.70;;
76550;SDS011;68768;53.156;18.164;2023-11-22T01:02:36;15.00;;;5.60;;
76550;SDS011;68768;53.156;18.164;2023-11-22T01:05:06;14.70;;;6.20;;
76550;SDS011;68768;53.156;18.164;2023-11-22T01:07:37;14.80;;;5.90;;
76550;SDS011;68768;53.156;18.164;2023-11-22T01:10:05;11.60;;;5.00;;
76550;SDS011;68768;53.156;18.164;2023-11-22T01:12:32;15.00;;;7.10;;
76550;SDS011;68768;53.156;18.164;2023-11-22T01:14:59;13.10;;;6.00;;
76550;SDS011;68768;53.156;18.164;2023-11-22T01:17:26;13.00;;;5.90;;
76550;SDS011;68768;53.156;18.164;2023-11-22T01:19:53;12.80;;;5.80;;
76550;SDS011;68768;53.156;18.164;2023-11-22T01:22:21;9.90;;;4.90;;
76550;SDS011;68768;53.156;18.164;2023-11-22T01:24:48;12.50;;;5.40;;
76550;SDS011;68768;53.156;18.164;2023-11-22T01:27:15;14.40;;;6.40;;
76550;SDS011;68768;53.156;18.164;2023-11-22T01:29:42;16.80;;;6.50;;
76550;SDS011;68768;53.156;18.164;2023-11-22T01:32:09;15.30;;;6.00;;
76550;SDS011;68768;53.156;18.164;2023-11-22T01:34:36;13.10;;;5.80;;
76550;SDS011;68768;53.156;18.164;2023-11-22T01:37:03;12.70;;;5.80;;
76550;SDS011;68768;53.156;18.164;2023-11-22T01:39:30;14.40;;;6.90;;
76550;SDS011;68768;53.156;18.164;2023-11-22T01:41:57;9.50;;;4.80;;
76550;SDS011;68768;53.156;18.164;2023-11-22T01:44:24;12.40;;;5.10;;
76550;SDS011;68768;53.156;18.164;2023-11-22T01:46:53;17.20;;;6.90;;
76550;SDS011;68768;53.156;18.164;2023-11-22T01:49:21;13.90;;;6.00;;
76550;SDS011;68768;53.156;18.164;2023-11-22T01:51:50;19.20;;;6.70;;
76550;SDS011;68768;53.156;18.164;2023-11-22T01:54:18;15.50;;;5.90;;
76550;SDS011;68768;53.156;18.164;2023-11-22T01:56:47;14.80;;;5.60;;
76550;SDS011;68768;53.156;18.164;2023-11-22T01:59:15;18.80;;;7.60;;
76550;SDS011;68768;53.156;18.164;2023-11-22T02:01:42;14.80;;;6.40;;
76550;SDS011;68768;53.156;18.164;2023-11-22T02:04:11;17.00;;;7.30;;
76550;SDS011;68768;53.156;18.164;2023-11-22T02:06:39;14.60;;;6.70;;
76550;SDS011;68768;53.156;18.164;2023-11-22T02:09:06;12.50;;;5.70;;
76550;SDS011;68768;53.156;18.164;2023-11-22T02:11:33;14.10;;;5.80;;
76550;SDS011;68768;53.156;18.164;2023-11-22T02:14:00;15.90;;;6.10;;
76550;SDS011;68768;53.156;18.164;2023-11-22T02:16:27;16.70;;;7.00;;
76550;SDS011;68768;53.156;18.164;2023-11-22T02:18:54;16.80;;;6.90;;
76550;SDS011;68768;53.156;18.164;2023-11-22T02:21:21;16.30;;;6.90;;
76550;SDS011;68768;53.156;18.164;2023-11-22T02:23:48;16.20;;;7.30;;
76550;SDS011;68768;53.156;18.164;2023-11-22T02:26:16;18.80;;;6.90;;
76550;SDS011;68768;53.156;18.164;2023-11-22T02:28:46;13.20;;;6.00;;
76550;SDS011;68768;53.156;18.164;2023-11-22T02:31:14;13.60;;;6.50;;
76550;SDS011;68768;53.156;18.164;2023-11-22T02:33:41;16.70;;;7.50;;
76550;SDS011;68768;53.156;18.164;2023-11-22T02:36:08;17.00;;;6.70;;
76550;SDS011;68768;53.156;18.164;2023-11-22T02:38:38;14.70;;;6.00;;
76550;SDS011;68768;53.156;18.164;2023-11-22T02:41:05;14.80;;;6.00;;
76550;SDS011;68768;53.156;18.164;2023-11-22T02:43:32;13.80;;;6.40;;
76550;SDS011;68768;53.156;18.164;2023-11-22T02:45:59;19.60;;;8.10;;
76550;SDS011;68768;53.156;18.164;2023-11-22T02:48:26;17.00;;;7.10;;
76550;SDS011;68768;53.156;18.164;2023-11-22T02:50:53;13.80;;;5.80;;
76550;SDS011;68768;53.156;18.164;2023-11-22T02:53:20;16.10;;;7.60;;
76550;SDS011;68768;53.156;18.164;2023-11-22T02:55:48;15.90;;;6.90;;
76550;SDS011;68768;53.156;18.164;2023-11-22T02:58:15;16.60;;;7.60;;
76550;SDS011;68768;53.156;18.164;2023-11-22T03:00:42;14.80;;;6.80;;
76550;SDS011;68768;53.156;18.164;2023-11-22T03:03:10;16.40;;;6.80;;
76550;SDS011;68768;53.156;18.164;2023-11-22T03:05:38;16.60;;;7.10;;
76550;SDS011;68768;53.156;18.164;2023-11-22T03:08:06;15.50;;;6.70;;
76550;SDS011;68768;53.156;18.164;2023-11-22T03:10:33;11.10;;;4.90;;
76550;SDS011;68768;53.156;18.164;2023-11-22T03:13:02;14.80;;;6.20;;
76550;SDS011;68768;53.156;18.164;2023-11-22T03:15:28;14.90;;;6.60;;
76550;SDS011;68768;53.156;18.164;2023-11-22T03:17:55;14.90;;;6.00;;
76550;SDS011;68768;53.156;18.164;2023-11-22T03:20:22;15.30;;;6.70;;
76550;SDS011;68768;53.156;18.164;2023-11-22T03:22:49;16.60;;;7.70;;
76550;SDS011;68768;53.156;18.164;2023-11-22T03:25:17;13.40;;;5.30;;
76550;SDS011;68768;53.156;18.164;2023-11-22T03:27:44;16.00;;;7.10;;
76550;SDS011;68768;53.156;18.164;2023-11-22T03:30:13;16.20;;;7.20;;
76550;SDS011;68768;53.156;18.164;2023-11-22T03:32:41;15.40;;;6.80;;
76550;SDS011;68768;53.156;18.164;2023-11-22T03:35:10;16.90;;;7.20;;
76550;SDS011;68768;53.156;18.164;2023-11-22T03:37:38;17.30;;;7.10;;
76550;SDS011;68768;53.156;18.164;2023-11-22T03:40:05;17.20;;;7.80;;
76550;SDS011;68768;53.156;18.164;2023-11-22T03:42:34;18.40;;;7.60;;
76550;SDS011;68768;53.156;18.164;2023-11-22T03:45:03;18.00;;;8.10;;
76550;SDS011;68768;53.156;18.164;2023-11-22T03:47:31;19.80;;;8.00;;
76550;SDS011;68768;53.156;18.164;2023-11-22T03:49:59;14.30;;;6.80;;
76550;SDS011;68768;53.156;18.164;2023-11-22T03:52:26;18.00;;;7.30;;
76550;SDS011;68768;53.156;18.164;2023-11-22T03:54:56;14.90;;;6.40;;
76550;SDS011;68768;53.156;18.164;2023-11-22T03:57:24;14.80;;;5.80;;
76550;SDS011;68768;53.156;18.164;2023-11-22T03:59:51;20.70;;;8.10;;
76550;SDS011;68768;53.156;18.164;2023-11-22T04:02:18;14.20;;;5.00;;
76550;SDS011;68768;53.156;18.164;2023-11-22T04:04:45;15.80;;;5.60;;
76550;SDS011;68768;53.156;18.164;2023-11-22T04:07:12;14.70;;;6.10;;
76550;SDS011;68768;53.156;18.164;2023-11-22T04:09:38;16.70;;;7.90;;
76550;SDS011;68768;53.156;18.164;2023-11-22T04:12:05;19.70;;;7.40;;
76550;SDS011;68768;53.156;18.164;2023-11-22T04:14:33;16.20;;;7.10;;
76550;SDS011;68768;53.156;18.164;2023-11-22T04:17:00;16.00;;;7.50;;
76550;SDS011;68768;53.156;18.164;2023-11-22T04:19:27;17.30;;;7.90;;
76550;SDS011;68768;53.156;18.164;2023-11-22T04:21:54;18.10;;;8.50;;
76550;SDS011;68768;53.156;18.164;2023-11-22T04:24:21;21.60;;;9.10;;
76550;SDS011;68768;53.156;18.164;2023-11-22T04:26:47;22.30;;;9.00;;
76550;SDS011;68768;53.156;18.164;2023-11-22T04:29:14;24.80;;;10.80;;
76550;SDS011;68768;53.156;18.164;2023-11-22T04:31:42;33.10;;;10.80;;
76550;SDS011;68768;53.156;18.164;2023-11-22T04:34:09;24.50;;;8.90;;
76550;SDS011;68768;53.156;18.164;2023-11-22T04:36:36;21.60;;;9.00;;
76550;SDS011;68768;53.156;18.164;2023-11-22T04:39:05;18.50;;;7.50;;
76550;SDS011;68768;53.156;18.164;2023-11-22T04:41:33;23.60;;;8.80;;
76550;SDS011;68768;53.156;18.164;2023-11-22T04:44:01;18.90;;;8.00;;
76550;SDS011;68768;53.156;18.164;2023-11-22T04:46:28;18.30;;;7.70;;
76550;SDS011;68768;53.156;18.164;2023-11-22T04:48:55;19.70;;;8.10;;
76550;SDS011;68768;53.156;18.164;2023-11-22T04:51:22;19.20;;;8.40;;
76550;SDS011;68768;53.156;18.164;2023-11-22T04:53:50;18.70;;;8.10;;
76550;SDS011;68768;53.156;18.164;2023-11-22T04:56:18;22.20;;;9.10;;
76550;SDS011;68768;53.156;18.164;2023-11-22T04:58:44;19.10;;;7.70;;
76550;SDS011;68768;53.156;18.164;2023-11-22T05:01:11;18.20;;;7.00;;
76550;SDS011;68768;53.156;18.164;2023-11-22T05:03:38;20.60;;;8.50;;
76550;SDS011;68768;53.156;18.164;2023-11-22T05:06:05;16.80;;;8.40;;
76550;SDS011;68768;53.156;18.164;2023-11-22T05:08:33;19.40;;;8.60;;
76550;SDS011;68768;53.156;18.164;2023-11-22T05:11:01;20.60;;;8.70;;
76550;SDS011;68768;53.156;18.164;2023-11-22T05:13:29;19.40;;;8.40;;
76550;SDS011;68768;53.156;18.164;2023-11-22T05:15:56;20.10;;;8.60;;
76550;SDS011;68768;53.156;18.164;2023-11-22T05:18:23;19.10;;;8.90;;
76550;SDS011;68768;53.156;18.164;2023-11-22T05:20:50;22.60;;;9.00;;
76550;SDS011;68768;53.156;18.164;2023-11-22T05:23:17;22.90;;;9.00;;
76550;SDS011;68768;53.156;18.164;2023-11-22T05:25:44;17.70;;;8.30;;
76550;SDS011;68768;53.156;18.164;2023-11-22T05:28:11;20.60;;;9.00;;
76550;SDS011;68768;53.156;18.164;2023-11-22T05:30:38;21.00;;;9.20;;
76550;SDS011;68768;53.156;18.164;2023-11-22T05:33:06;23.00;;;8.70;;
76550;SDS011;68768;53.156;18.164;2023-11-22T05:35:33;19.80;;;8.90;;
76550;SDS011;68768;53.156;18.164;2023-11-22T05:38:00;21.80;;;9.20;;
76550;SDS011;68768;53.156;18.164;2023-11-22T05:40:27;21.70;;;9.10;;
76550;SDS011;68768;53.156;18.164;2023-11-22T05:42:54;19.30;;;8.30;;
76550;SDS011;68768;53.156;18.164;2023-11-22T05:45:21;22.00;;;9.20;;
76550;SDS011;68768;53.156;18.164;2023-11-22T05:47:48;18.00;;;8.40;;
76550;SDS011;68768;53.156;18.164;2023-11-22T05:50:14;20.80;;;9.00;;
76550;SDS011;68768;53.156;18.164;2023-11-22T05:52:41;19.20;;;8.40;;
76550;SDS011;68768;53.156;18.164;2023-11-22T05:55:08;22.40;;;9.00;;
76550;SDS011;68768;53.156;18.164;2023-11-22T05:57:35;22.90;;;9.10;;
76550;SDS011;68768;53.156;18.164;2023-11-22T06:00:02;19.00;;;8.80;;
76550;SDS011;68768;53.156;18.164;2023-11-22T06:02:30;16.80;;;8.00;;
76550;SDS011;68768;53.156;18.164;2023-11-22T06:04:57;17.00;;;8.30;;
76550;SDS011;68768;53.156;18.164;2023-11-22T06:07:24;18.30;;;8.20;;
76550;SDS011;68768;53.156;18.164;2023-11-22T06:09:51;27.50;;;9.80;;
76550;SDS011;68768;53.156;18.164;2023-11-22T06:12:18;73.90;;;26.30;;
76550;SDS011;68768;53.156;18.164;2023-11-22T06:14:47;18.80;;;8.50;;
76550;SDS011;68768;53.156;18.164;2023-11-22T06:17:14;16.50;;;7.60;;
76550;SDS011;68768;53.156;18.164;2023-11-22T06:19:41;16.10;;;7.90;;
76550;SDS011;68768;53.156;18.164;2023-11-22T06:22:07;17.50;;;7.70;;
76550;SDS011;68768;53.156;18.164;2023-11-22T06:24:34;18.20;;;7.50;;
76550;SDS011;68768;53.156;18.164;2023-11-22T06:27:02;20.40;;;8.30;;
76550;SDS011;68768;53.156;18.164;2023-11-22T06:29:30;17.30;;;7.40;;
76550;SDS011;68768;53.156;18.164;2023-11-22T06:31:57;15.50;;;7.10;;
76550;SDS011;68768;53.156;18.164;2023-11-22T06:34:23;17.60;;;8.30;;
76550;SDS011;68768;53.156;18.164;2023-11-22T06:36:50;19.80;;;8.00;;
76550;SDS011;68768;53.156;18.164;2023-11-22T06:39:17;15.50;;;7.20;;
76550;SDS011;68768;53.156;18.164;2023-11-22T06:41:44;16.70;;;7.80;;
76550;SDS011;68768;53.156;18.164;2023-11-22T06:44:11;24.30;;;8.80;;
76550;SDS011;68768;53.156;18.164;2023-11-22T06:46:38;18.80;;;8.30;;
76550;SDS011;68768;53.156;18.164;2023-11-22T06:49:05;20.30;;;8.10;;
76550;SDS011;68768;53.156;18.164;2023-11-22T06:51:32;20.90;;;9.20;;
76550;SDS011;68768;53.156;18.164;2023-11-22T06:53:59;18.20;;;7.80;;
76550;SDS011;68768;53.156;18.164;2023-11-22T06:56:26;15.40;;;7.60;;
76550;SDS011;68768;53.156;18.164;2023-11-22T06:58:52;19.30;;;8.00;;
76550;SDS011;68768;53.156;18.164;2023-11-22T07:01:22;18.50;;;7.60;;
76550;SDS011;68768;53.156;18.164;2023-11-22T07:03:50;17.90;;;7.70;;
76550;SDS011;68768;53.156;18.164;2023-11-22T07:06:17;20.70;;;8.20;;
76550;SDS011;68768;53.156;18.164;2023-11-22T07:08:44;17.00;;;8.20;;
76550;SDS011;68768;53.156;18.164;2023-11-22T07:11:12;18.10;;;8.10;;
76550;SDS011;68768;53.156;18.164;2023-11-22T07:13:40;18.00;;;7.70;;
76550;SDS011;68768;53.156;18.164;2023-11-22T07:16:07;20.30;;;8.20;;
76550;SDS011;68768;53.156;18.164;2023-11-22T07:18:34;20.60;;;8.00;;
76550;SDS011;68768;53.156;18.164;2023-11-22T07:21:01;17.80;;;7.50;;
76550;SDS011;68768;53.156;18.164;2023-11-22T07:23:28;19.10;;;7.40;;
76550;SDS011;68768;53.156;18.164;2023-11-22T07:25:55;17.60;;;6.70;;
76550;SDS011;68768;53.156;18.164;2023-11-22T07:28:22;16.50;;;7.20;;
76550;SDS011;68768;53.156;18.164;2023-11-22T07:30:49;19.20;;;7.10;;
76550;SDS011;68768;53.156;18.164;2023-11-22T07:33:16;16.60;;;7.70;;
76550;SDS011;68768;53.156;18.164;2023-11-22T07:35:43;18.00;;;7.70;;
76550;SDS011;68768;53.156;18.164;2023-11-22T07:38:10;18.70;;;8.40;;
76550;SDS011;68768;53.156;18.164;2023-11-22T07:40:37;16.90;;;8.00;;
76550;SDS011;68768;53.156;18.164;2023-11-22T07:43:05;18.70;;;8.10;;
76550;SDS011;68768;53.156;18.164;2023-11-22T07:45:34;17.30;;;8.40;;
76550;SDS011;68768;53.156;18.164;2023-11-22T07:48:01;16.80;;;7.90;;
76550;SDS011;68768;53.156;18.164;2023-11-22T07:50:29;19.30;;;8.50;;
76550;SDS011;68768;53.156;18.164;2023-11-22T07:52:56;19.30;;;8.60;;
76550;SDS011;68768;53.156;18.164;2023-11-22T07:55:23;16.60;;;7.90;;
76550;SDS011;68768;53.156;18.164;2023-11-22T07:57:50;20.70;;;8.40;;
76550;SDS011;68768;53.156;18.164;2023-11-22T08:00:17;15.50;;;7.60;;
76550;SDS011;68768;53.156;18.164;2023-11-22T08:02:45;22.00;;;9.30;;
76550;SDS011;68768;53.156;18.164;2023-11-22T08:05:12;19.00;;;8.20;;
76550;SDS011;68768;53.156;18.164;2023-11-22T08:07:42;19.70;;;8.30;;
76550;SDS011;68768;53.156;18.164;2023-11-22T08:10:12;17.80;;;7.80;;
76550;SDS011;68768;53.156;18.164;2023-11-22T08:12:48;20.80;;;8.90;;
76550;SDS011;68768;53.156;18.164;2023-11-22T08:15:17;22.30;;;10.70;;
76550;SDS011;68768;53.156;18.164;2023-11-22T08:17:46;31.10;;;13.80;;
76550;SDS011;68768;53.156;18.164;2023-11-22T08:20:13;34.30;;;15.10;;
76550;SDS011;68768;53.156;18.164;2023-11-22T08:22:44;32.10;;;13.80;;
76550;SDS011;68768;53.156;18.164;2023-11-22T08:25:12;32.70;;;13.50;;
76550;SDS011;68768;53.156;18.164;2023-11-22T08:27:39;32.50;;;14.30;;
76550;SDS011;68768;53.156;18.164;2023-11-22T08:30:08;32.70;;;13.30;;
76550;SDS011;68768;53.156;18.164;2023-11-22T08:32:40;30.80;;;13.80;;
76550;SDS011;68768;53.156;18.164;2023-11-22T08:35:08;34.70;;;14.70;;
76550;SDS011;68768;53.156;18.164;2023-11-22T08:37:38;30.40;;;13.50;;
76550;SDS011;68768;53.156;18.164;2023-11-22T08:40:08;33.90;;;13.70;;
76550;SDS011;68768;53.156;18.164;2023-11-22T08:42:43;34.50;;;13.90;;
76550;SDS011;68768;53.156;18.164;2023-11-22T08:45:10;24.70;;;11.60;;
76550;SDS011;68768;53.156;18.164;2023-11-22T08:47:39;29.80;;;11.10;;
76550;SDS011;68768;53.156;18.164;2023-11-22T08:50:08;23.20;;;10.00;;
76550;SDS011;68768;53.156;18.164;2023-11-22T08:52:38;28.50;;;10.90;;
76550;SDS011;68768;53.156;18.164;2023-11-22T08:55:06;23.10;;;10.10;;
76550;SDS011;68768;53.156;18.164;2023-11-22T08:57:37;24.40;;;10.50;;
76550;SDS011;68768;53.156;18.164;2023-11-22T09:00:05;19.10;;;8.50;;
76550;SDS011;68768;53.156;18.164;2023-11-22T09:02:36;20.90;;;8.80;;
76550;SDS011;68768;53.156;18.164;2023-11-22T09:05:03;23.00;;;8.40;;
76550;SDS011;68768;53.156;18.164;2023-11-22T09:07:36;18.90;;;8.10;;
76550;SDS011;68768;53.156;18.164;2023-11-22T09:10:04;16.00;;;7.10;;
76550;SDS011;68768;53.156;18.164;2023-11-22T09:12:39;16.10;;;7.20;;
76550;SDS011;68768;53.156;18.164;2023-11-22T09:15:07;17.00;;;8.20;;
76550;SDS011;68768;53.156;18.164;2023-11-22T09:17:36;13.90;;;6.50;;
76550;SDS011;68768;53.156;18.164;2023-11-22T09:20:10;15.10;;;6.80;;
76550;SDS011;68768;53.156;18.164;2023-11-22T09:22:43;15.70;;;7.00;;
76550;SDS011;68768;53.156;18.164;2023-11-22T09:25:18;12.80;;;5.80;;
76550;SDS011;68768;53.156;18.164;2023-11-22T09:27:50;17.50;;;6.70;;
76550;SDS011;68768;53.156;18.164;2023-11-22T09:30:22;15.20;;;6.30;;
76550;SDS011;68768;53.156;18.164;2023-11-22T09:33:01;14.30;;;6.80;;
76550;SDS011;68768;53.156;18.164;2023-11-22T09:35:30;14.30;;;6.70;;
76550;SDS011;68768;53.156;18.164;2023-11-22T09:38:00;14.80;;;6.40;;
76550;SDS011;68768;53.156;18.164;2023-11-22T09:40:28;17.50;;;7.90;;
76550;SDS011;68768;53.156;18.164;2023-11-22T09:42:58;16.90;;;8.20;;
76550;SDS011;68768;53.156;18.164;2023-11-22T09:45:28;18.70;;;8.70;;
76550;SDS011;68768;53.156;18.164;2023-11-22T09:47:57;18.60;;;8.40;;
76550;SDS011;68768;53.156;18.164;2023-11-22T09:50:40;18.70;;;8.40;;
76550;SDS011;68768;53.156;18.164;2023-11-22T09:53:19;18.20;;;8.10;;
76550;SDS011;68768;53.156;18.164;2023-11-22T09:56:03;18.60;;;8.00;;
76550;SDS011;68768;53.156;18.164;2023-11-22T09:58:33;17.80;;;7.60;;
76550;SDS011;68768;53.156;18.164;2023-11-22T10:01:01;21.90;;;9.40;;
76550;SDS011;68768;53.156;18.164;2023-11-22T10:03:30;22.30;;;9.60;;
76550;SDS011;68768;53.156;18.164;2023-11-22T10:05:57;20.80;;;9.30;;
76550;SDS011;68768;53.156;18.164;2023-11-22T10:08:30;23.30;;;9.50;;
76550;SDS011;68768;53.156;18.164;2023-11-22T10:10:58;24.50;;;10.50;;
76550;SDS011;68768;53.156;18.164;2023-11-22T10:13:25;18.80;;;9.20;;
76550;SDS011;68768;53.156;18.164;2023-11-22T10:15:53;17.30;;;7.70;;
76550;SDS011;68768;53.156;18.164;2023-11-22T10:18:20;20.90;;;9.20;;
76550;SDS011;68768;53.156;18.164;2023-11-22T10:20:48;23.70;;;10.70;;
76550;SDS011;68768;53.156;18.164;2023-11-22T10:23:16;21.60;;;10.90;;
76550;SDS011;68768;53.156;18.164;2023-11-22T10:25:46;24.90;;;11.00;;
76550;SDS011;68768;53.156;18.164;2023-11-22T10:28:19;20.20;;;10.10;;
76550;SDS011;68768;53.156;18.164;2023-11-22T10:30:47;23.70;;;9.20;;
76550;SDS011;68768;53.156;18.164;2023-11-22T10:33:16;22.40;;;10.30;;
76550;SDS011;68768;53.156;18.164;2023-11-22T10:35:50;23.60;;;9.10;;
76550;SDS011;68768;53.156;18.164;2023-11-22T10:38:19;22.00;;;9.80;;
76550;SDS011;68768;53.156;18.164;2023-11-22T10:40:47;21.20;;;10.30;;
76550;SDS011;68768;53.156;18.164;2023-11-22T10:43:15;19.80;;;9.60;;
76550;SDS011;68768;53.156;18.164;2023-11-22T10:45:44;21.80;;;11.00;;
76550;SDS011;68768;53.156;18.164;2023-11-22T10:48:18;24.40;;;11.50;;
76550;SDS011;68768;53.156;18.164;2023-11-22T10:50:47;22.20;;;10.40;;
76550;SDS011;68768;53.156;18.164;2023-11-22T10:53:20;22.90;;;9.90;;
76550;SDS011;68768;53.156;18.164;2023-11-22T10:55:49;20.20;;;10.30;;
76550;SDS011;68768;53.156;18.164;2023-11-22T10:58:24;20.70;;;10.60;;
76550;SDS011;68768;53.156;18.164;2023-11-22T11:00:52;20.00;;;9.40;;
76550;SDS011;68768;53.156;18.164;2023-11-22T11:03:20;19.00;;;9.00;;
76550;SDS011;68768;53.156;18.164;2023-11-22T11:05:50;17.80;;;8.00;;
76550;SDS011;68768;53.156;18.164;2023-11-22T11:08:20;19.20;;;8.70;;
76550;SDS011;68768;53.156;18.164;2023-11-22T11:10:51;16.60;;;7.80;;
76550;SDS011;68768;53.156;18.164;2023-11-22T11:13:19;25.10;;;8.70;;
76550;SDS011;68768;53.156;18.164;2023-11-22T11:15:46;16.60;;;7.70;;
76550;SDS011;68768;53.156;18.164;2023-11-22T11:18:14;20.10;;;9.40;;
76550;SDS011;68768;53.156;18.164;2023-11-22T11:20:48;21.00;;;9.70;;
76550;SDS011;68768;53.156;18.164;2023-11-22T11:23:19;23.40;;;9.40;;
76550;SDS011;68768;53.156;18.164;2023-11-22T11:25:49;19.30;;;8.90;;
76550;SDS011;68768;53.156;18.164;2023-11-22T11:28:16;19.50;;;9.00;;
76550;SDS011;68768;53.156;18.164;2023-11-22T11:30:47;20.10;;;9.60;;
76550;SDS011;68768;53.156;18.164;2023-11-22T11:33:15;19.20;;;9.00;;
76550;SDS011;68768;53.156;18.164;2023-11-22T11:35:48;21.40;;;9.70;;
76550;SDS011;68768;53.156;18.164;2023-11-22T11:38:17;22.10;;;10.00;;
76550;SDS011;68768;53.156;18.164;2023-11-22T11:40:48;22.20;;;10.20;;
76550;SDS011;68768;53.156;18.164;2023-11-22T11:43:20;25.20;;;9.70;;
76550;SDS011;68768;53.156;18.164;2023-11-22T11:45:47;23.40;;;8.80;;
76550;SDS011;68768;53.156;18.164;2023-11-22T11:48:15;19.00;;;7.80;;
76550;SDS011;68768;53.156;18.164;2023-11-22T11:50:43;18.20;;;7.70;;
76550;SDS011;68768;53.156;18.164;2023-11-22T11:53:10;15.20;;;6.90;;
76550;SDS011;68768;53.156;18.164;2023-11-22T11:55:37;16.20;;;7.20;;
76550;SDS011;68768;53.156;18.164;2023-11-22T11:58:05;18.70;;;7.80;;
76550;SDS011;68768;53.156;18.164;2023-11-22T12:00:36;17.40;;;7.60;;
76550;SDS011;68768;53.156;18.164;2023-11-22T12:03:09;14.90;;;6.80;;
76550;SDS011;68768;53.156;18.164;2023-11-22T12:05:37;16.10;;;7.30;;
76550;SDS011;68768;53.156;18.164;2023-11-22T12:08:05;12.70;;;6.30;;
76550;SDS011;68768;53.156;18.164;2023-11-22T12:10:32;17.20;;;6.60;;
76550;SDS011;68768;53.156;18.164;2023-11-22T12:12:59;14.20;;;6.40;;
76550;SDS011;68768;53.156;18.164;2023-11-22T12:15:26;14.20;;;6.70;;
76550;SDS011;68768;53.156;18.164;2023-11-22T12:17:55;12.40;;;6.20;;
76550;SDS011;68768;53.156;18.164;2023-11-22T12:20:23;13.40;;;6.50;;
76550;SDS011;68768;53.156;18.164;2023-11-22T12:22:52;19.30;;;6.90;;
76550;SDS011;68768;53.156;18.164;2023-11-22T12:25:19;12.80;;;6.10;;
76550;SDS011;68768;53.156;18.164;2023-11-22T12:27:47;18.20;;;6.60;;
76550;SDS011;68768;53.156;18.164;2023-11-22T12:33:05;12.50;;;5.70;;
76550;SDS011;68768;53.156;18.164;2023-11-22T12:35:36;14.30;;;5.90;;
76550;SDS011;68768;53.156;18.164;2023-11-22T12:38:04;15.00;;;6.00;;
76550;SDS011;68768;53.156;18.164;2023-11-22T12:40:33;22.20;;;7.20;;
76550;SDS011;68768;53.156;18.164;2023-11-22T12:43:00;13.20;;;6.40;;
76550;SDS011;68768;53.156;18.164;2023-11-22T12:45:27;13.70;;;6.30;;
76550;SDS011;68768;53.156;18.164;2023-11-22T12:47:55;15.40;;;6.90;;
76550;SDS011;68768;53.156;18.164;2023-11-22T12:50:29;14.10;;;5.90;;
76550;SDS011;68768;53.156;18.164;2023-11-22T12:52:59;19.50;;;6.70;;
76550;SDS011;68768;53.156;18.164;2023-11-22T12:55:33;19.00;;;6.30;;
76550;SDS011;68768;53.156;18.164;2023-11-22T12:58:00;26.40;;;6.50;;
76550;SDS011;68768;53.156;18.164;2023-11-22T13:00:29;15.80;;;6.60;;
76550;SDS011;68768;53.156;18.164;2023-11-22T13:02:56;13.60;;;6.10;;
76550;SDS011;68768;53.156;18.164;2023-11-22T13:05:24;14.00;;;6.20;;
76550;SDS011;68768;53.156;18.164;2023-11-22T13:07:51;13.60;;;5.60;;
76550;SDS011;68768;53.156;18.164;2023-11-22T13:10:19;15.50;;;5.90;;
76550;SDS011;68768;53.156;18.164;2023-11-22T13:12:52;16.70;;;7.00;;
76550;SDS011;68768;53.156;18.164;2023-11-22T13:15:20;14.40;;;6.70;;
76550;SDS011;68768;53.156;18.164;2023-11-22T13:17:53;15.90;;;6.50;;
76550;SDS011;68768;53.156;18.164;2023-11-22T13:20:23;16.40;;;7.10;;
76550;SDS011;68768;53.156;18.164;2023-11-22T13:22:54;15.00;;;6.60;;
76550;SDS011;68768;53.156;18.164;2023-11-22T13:25:22;15.00;;;6.80;;
76550;SDS011;68768;53.156;18.164;2023-11-22T13:27:50;19.50;;;7.20;;
76550;SDS011;68768;53.156;18.164;2023-11-22T13:30:19;19.70;;;6.80;;
76550;SDS011;68768;53.156;18.164;2023-11-22T13:32:49;16.10;;;6.70;;
76550;SDS011;68768;53.156;18.164;2023-11-22T13:35:16;18.40;;;6.80;;
76550;SDS011;68768;53.156;18.164;2023-11-22T13:37:44;17.20;;;7.50;;
76550;SDS011;68768;53.156;18.164;2023-11-22T13:40:12;20.20;;;7.60;;
76550;SDS011;68768;53.156;18.164;2023-11-22T13:42:49;21.60;;;7.70;;
76550;SDS011;68768;53.156;18.164;2023-11-22T13:45:19;20.10;;;7.40;;
76550;SDS011;68768;53.156;18.164;2023-11-22T13:47:47;14.30;;;6.50;;
76550;SDS011;68768;53.156;18.164;2023-11-22T13:50:17;13.00;;;6.20;;
76550;SDS011;68768;53.156;18.164;2023-11-22T13:52:45;13.90;;;6.20;;
76550;SDS011;68768;53.156;18.164;2023-11-22T13:55:13;14.00;;;5.80;;
76550;SDS011;68768;53.156;18.164;2023-11-22T13:57:40;15.60;;;6.90;;
76550;SDS011;68768;53.156;18.164;2023-11-22T14:00:08;21.80;;;9.80;;
76550;SDS011;68768;53.156;18.164;2023-11-22T14:03:02;14.30;;;6.70;;
76550;SDS011;68768;53.156;18.164;2023-11-22T14:05:34;13.80;;;6.10;;
76550;SDS011;68768;53.156;18.164;2023-11-22T14:08:03;12.60;;;5.80;;
76550;SDS011;68768;53.156;18.164;2023-11-22T14:10:32;12.80;;;5.90;;
76550;SDS011;68768;53.156;18.164;2023-11-22T14:12:59;16.60;;;7.20;;
76550;SDS011;68768;53.156;18.164;2023-11-22T14:15:27;14.90;;;6.90;;
76550;SDS011;68768;53.156;18.164;2023-11-22T14:17:57;11.70;;;5.90;;
76550;SDS011;68768;53.156;18.164;2023-11-22T14:20:24;23.50;;;8.80;;
76550;SDS011;68768;53.156;18.164;2023-11-22T14:22:51;17.70;;;8.20;;
76550;SDS011;68768;53.156;18.164;2023-11-22T14:25:19;16.40;;;7.50;;
76550;SDS011;68768;53.156;18.164;2023-11-22T14:27:47;22.50;;;8.80;;
76550;SDS011;68768;53.156;18.164;2023-11-22T14:30:18;22.40;;;8.90;;